sensor_id;sensor_type;location;lat;lon;timestamp;temperature;humidity
38604;DHT22;24924;50.054;8.790;2023-03-11T00:00:23;2.40;99.90
38604;DHT22;24924;50.054;8.790;2023-03-11T00:02:52;2.50;99.90
38604;DHT22;24924;50.054;8.790;2023-03-11T00:05:29;2.40;99.90
38604;DHT22;24924;50.054;8.790;2023-03-11T00:07:56;2.40;99.90
38604;DHT22;24924;50.054;8.790;2023-03-11T00:10:26;2.50;99.90
38604;DHT22;24924;50.054;8.790;2023-03-11T00:15:19;2.40;99.90
38604;DHT22;24924;50.054;8.790;2023-03-11T00:17:47;2.40;99.90
38604;DHT22;24924;50.054;8.790;2023-03-11T00:20:22;2.50;99.90
38604;DHT22;24924;50.054;8.790;2023-03-11T00:22:48;2.50;99.90
38604;DHT22;24924;50.054;8.790;2023-03-11T00:25:16;2.50;99.90
38604;DHT22;24924;50.054;8.790;2023-03-11T00:27:41;2.40;99.90
38604;DHT22;24924;50.054;8.790;2023-03-11T00:30:08;2.40;99.90
38604;DHT22;24924;50.054;8.790;2023-03-11T00:32:34;2.50;99.90
38604;DHT22;24924;50.054;8.790;2023-03-11T00:35:01;2.60;99.90
38604;DHT22;24924;50.054;8.790;2023-03-11T00:37:26;2.60;99.90
38604;DHT22;24924;50.054;8.790;2023-03-11T00:39:52;2.60;99.90
38604;DHT22;24924;50.054;8.790;2023-03-11T00:47:11;2.60;99.90
38604;DHT22;24924;50.054;8.790;2023-03-11T00:52:03;2.60;99.90
38604;DHT22;24924;50.054;8.790;2023-03-11T00:59:21;2.40;99.90
38604;DHT22;24924;50.054;8.790;2023-03-11T01:01:47;2.60;99.90
38604;DHT22;24924;50.054;8.790;2023-03-11T01:04:13;2.60;99.90
38604;DHT22;24924;50.054;8.790;2023-03-11T01:06:39;2.40;99.90
38604;DHT22;24924;50.054;8.790;2023-03-11T01:09:05;2.60;99.90
38604;DHT22;24924;50.054;8.790;2023-03-11T01:11:31;2.40;99.90
38604;DHT22;24924;50.054;8.790;2023-03-11T01:13:57;2.50;99.90
38604;DHT22;24924;50.054;8.790;2023-03-11T01:21:15;2.50;99.90
38604;DHT22;24924;50.054;8.790;2023-03-11T01:33:29;2.40;99.90
38604;DHT22;24924;50.054;8.790;2023-03-11T01:40:50;2.30;99.90
38604;DHT22;24924;50.054;8.790;2023-03-11T01:48:40;2.30;99.90
38604;DHT22;24924;50.054;8.790;2023-03-11T01:51:08;2.30;99.90
38604;DHT22;24924;50.054;8.790;2023-03-11T01:53:34;2.30;99.90
38604;DHT22;24924;50.054;8.790;2023-03-11T01:56:02;2.20;99.90
38604;DHT22;24924;50.054;8.790;2023-03-11T01:58:33;2.20;99.90
38604;DHT22;24924;50.054;8.790;2023-03-11T02:01:01;2.20;99.90
38604;DHT22;24924;50.054;8.790;2023-03-11T02:03:31;2.20;99.90
38604;DHT22;24924;50.054;8.790;2023-03-11T02:06:04;2.10;99.90
38604;DHT22;24924;50.054;8.790;2023-03-11T02:08:32;2.00;99.90
38604;DHT22;24924;50.054;8.790;2023-03-11T02:11:04;2.10;99.90
38604;DHT22;24924;50.054;8.790;2023-03-11T02:13:33;2.10;99.90
38604;DHT22;24924;50.054;8.790;2023-03-11T02:16:01;2.00;99.90
38604;DHT22;24924;50.054;8.790;2023-03-11T02:18:27;1.90;99.90
38604;DHT22;24924;50.054;8.790;2023-03-11T02:21:00;1.90;99.90
38604;DHT22;24924;50.054;8.790;2023-03-11T02:23:36;1.90;99.90
38604;DHT22;24924;50.054;8.790;2023-03-11T02:26:26;1.90;99.90
38604;DHT22;24924;50.054;8.790;2023-03-11T02:31:21;1.90;99.90
38604;DHT22;24924;50.054;8.790;2023-03-11T02:33:50;2.00;99.90
38604;DHT22;24924;50.054;8.790;2023-03-11T02:36:39;2.00;99.90
38604;DHT22;24924;50.054;8.790;2023-03-11T02:39:08;2.00;99.90
38604;DHT22;24924;50.054;8.790;2023-03-11T02:41:40;2.00;99.90
38604;DHT22;24924;50.054;8.790;2023-03-11T02:44:10;2.00;99.90
38604;DHT22;24924;50.054;8.790;2023-03-11T02:46:37;2.10;99.90
38604;DHT22;24924;50.054;8.790;2023-03-11T02:49:05;2.10;99.90
38604;DHT22;24924;50.054;8.790;2023-03-11T02:54:02;2.10;99.90
38604;DHT22;24924;50.054;8.790;2023-03-11T02:56:29;2.00;99.90
38604;DHT22;24924;50.054;8.790;2023-03-11T02:58:54;2.00;99.90
38604;DHT22;24924;50.054;8.790;2023-03-11T03:03:47;2.00;99.90
38604;DHT22;24924;50.054;8.790;2023-03-11T03:06:13;2.40;99.90
38604;DHT22;24924;50.054;8.790;2023-03-11T03:13:32;2.00;99.90
38604;DHT22;24924;50.054;8.790;2023-03-11T03:15:59;2.00;99.90
38604;DHT22;24924;50.054;8.790;2023-03-11T03:18:25;2.10;99.90
38604;DHT22;24924;50.054;8.790;2023-03-11T03:20:52;2.10;99.90
38604;DHT22;24924;50.054;8.790;2023-03-11T03:23:18;2.00;99.90
38604;DHT22;24924;50.054;8.790;2023-03-11T03:25:44;2.00;99.90
38604;DHT22;24924;50.054;8.790;2023-03-11T03:28:11;2.00;99.90
38604;DHT22;24924;50.054;8.790;2023-03-11T03:30:40;2.10;99.90
38604;DHT22;24924;50.054;8.790;2023-03-11T03:33:07;2.10;99.90
38604;DHT22;24924;50.054;8.790;2023-03-11T03:35:34;2.00;99.90
38604;DHT22;24924;50.054;8.790;2023-03-11T03:38:09;2.10;99.90
38604;DHT22;24924;50.054;8.790;2023-03-11T03:40:36;2.10;99.90
38604;DHT22;24924;50.054;8.790;2023-03-11T03:43:04;2.10;99.90
38604;DHT22;24924;50.054;8.790;2023-03-11T03:45:31;2.10;99.90
38604;DHT22;24924;50.054;8.790;2023-03-11T03:47:57;2.10;99.90
38604;DHT22;24924;50.054;8.790;2023-03-11T03:52:52;2.10;99.90
38604;DHT22;24924;50.054;8.790;2023-03-11T03:55:20;2.10;99.90
38604;DHT22;24924;50.054;8.790;2023-03-11T04:02:40;2.10;99.90
38604;DHT22;24924;50.054;8.790;2023-03-11T04:07:41;2.20;99.90
38604;DHT22;24924;50.054;8.790;2023-03-11T04:10:08;2.10;99.90
38604;DHT22;24924;50.054;8.790;2023-03-11T04:12:34;2.00;99.90
38604;DHT22;24924;50.054;8.790;2023-03-11T04:14:59;2.00;99.90
38604;DHT22;24924;50.054;8.790;2023-03-11T04:17:26;2.00;99.90
38604;DHT22;24924;50.054;8.790;2023-03-11T04:19:54;2.10;99.90
38604;DHT22;24924;50.054;8.790;2023-03-11T04:22:20;2.10;99.90
38604;DHT22;24924;50.054;8.790;2023-03-11T04:24:46;2.10;99.90
38604;DHT22;24924;50.054;8.790;2023-03-11T04:27:11;2.20;99.90
38604;DHT22;24924;50.054;8.790;2023-03-11T04:29:38;2.20;99.90
38604;DHT22;24924;50.054;8.790;2023-03-11T04:32:04;2.20;99.90
38604;DHT22;24924;50.054;8.790;2023-03-11T04:39:28;2.10;99.90
38604;DHT22;24924;50.054;8.790;2023-03-11T04:41:55;2.20;99.90
38604;DHT22;24924;50.054;8.790;2023-03-11T04:44:23;2.20;99.90
38604;DHT22;24924;50.054;8.790;2023-03-11T04:46:50;2.10;99.90
38604;DHT22;24924;50.054;8.790;2023-03-11T04:49:16;2.20;99.90
38604;DHT22;24924;50.054;8.790;2023-03-11T04:51:42;2.20;99.90
38604;DHT22;24924;50.054;8.790;2023-03-11T04:56:35;2.10;99.90
38604;DHT22;24924;50.054;8.790;2023-03-11T05:01:30;2.10;99.90
38604;DHT22;24924;50.054;8.790;2023-03-11T05:03:59;2.10;99.90
38604;DHT22;24924;50.054;8.790;2023-03-11T05:08:52;2.20;99.90
38604;DHT22;24924;50.054;8.790;2023-03-11T05:11:18;2.20;99.90
38604;DHT22;24924;50.054;8.790;2023-03-11T05:13:45;2.30;99.90
38604;DHT22;24924;50.054;8.790;2023-03-11T05:16:12;2.20;99.90
38604;DHT22;24924;50.054;8.790;2023-03-11T05:18:37;2.10;99.90
38604;DHT22;24924;50.054;8.790;2023-03-11T05:21:04;2.20;99.90
38604;DHT22;24924;50.054;8.790;2023-03-11T05:23:32;2.20;99.90
38604;DHT22;24924;50.054;8.790;2023-03-11T05:28:25;2.10;99.90
38604;DHT22;24924;50.054;8.790;2023-03-11T05:30:52;2.00;99.90
38604;DHT22;24924;50.054;8.790;2023-03-11T05:33:18;2.00;99.90
38604;DHT22;24924;50.054;8.790;2023-03-11T05:35:45;2.00;99.90
38604;DHT22;24924;50.054;8.790;2023-03-11T05:38:11;1.90;99.90
38604;DHT22;24924;50.054;8.790;2023-03-11T05:43:03;1.90;99.90
38604;DHT22;24924;50.054;8.790;2023-03-11T05:52:53;2.00;99.90
38604;DHT22;24924;50.054;8.790;2023-03-11T05:57:50;2.10;99.90
38604;DHT22;24924;50.054;8.790;2023-03-11T06:07:45;2.20;99.90
38604;DHT22;24924;50.054;8.790;2023-03-11T06:12:38;2.20;99.90
38604;DHT22;24924;50.054;8.790;2023-03-11T06:15:36;2.30;99.90
38604;DHT22;24924;50.054;8.790;2023-03-11T06:18:03;2.30;99.90
38604;DHT22;24924;50.054;8.790;2023-03-11T06:22:56;2.30;99.90
38604;DHT22;24924;50.054;8.790;2023-03-11T06:25:23;2.30;99.90
38604;DHT22;24924;50.054;8.790;2023-03-11T06:27:51;2.40;99.90
38604;DHT22;24924;50.054;8.790;2023-03-11T06:30:19;2.40;99.90
38604;DHT22;24924;50.054;8.790;2023-03-11T06:32:53;2.40;99.90
38604;DHT22;24924;50.054;8.790;2023-03-11T06:35:20;2.40;99.90
38604;DHT22;24924;50.054;8.790;2023-03-11T06:37:45;2.40;99.90
38604;DHT22;24924;50.054;8.790;2023-03-11T06:40:11;2.50;99.90
38604;DHT22;24924;50.054;8.790;2023-03-11T06:42:38;2.60;99.90
38604;DHT22;24924;50.054;8.790;2023-03-11T06:45:06;2.50;99.90
38604;DHT22;24924;50.054;8.790;2023-03-11T06:49:59;2.50;99.90
38604;DHT22;24924;50.054;8.790;2023-03-11T06:52:31;2.60;99.90
38604;DHT22;24924;50.054;8.790;2023-03-11T06:54:56;2.60;99.90
38604;DHT22;24924;50.054;8.790;2023-03-11T06:57:22;2.60;99.90
38604;DHT22;24924;50.054;8.790;2023-03-11T07:02:18;2.60;99.90
38604;DHT22;24924;50.054;8.790;2023-03-11T07:07:10;2.60;99.90
38604;DHT22;24924;50.054;8.790;2023-03-11T07:17:00;2.60;99.90
38604;DHT22;24924;50.054;8.790;2023-03-11T07:21:58;2.70;99.90
38604;DHT22;24924;50.054;8.790;2023-03-11T07:26:50;2.80;99.90
38604;DHT22;24924;50.054;8.790;2023-03-11T07:29:16;2.70;99.90
38604;DHT22;24924;50.054;8.790;2023-03-11T07:31:41;2.70;99.90
38604;DHT22;24924;50.054;8.790;2023-03-11T07:34:09;2.80;99.90
38604;DHT22;24924;50.054;8.790;2023-03-11T07:36:38;2.70;99.90
38604;DHT22;24924;50.054;8.790;2023-03-11T07:39:05;2.80;99.90
38604;DHT22;24924;50.054;8.790;2023-03-11T07:41:33;2.80;99.90
38604;DHT22;24924;50.054;8.790;2023-03-11T07:44:01;2.90;99.90
38604;DHT22;24924;50.054;8.790;2023-03-11T07:46:28;2.90;99.90
38604;DHT22;24924;50.054;8.790;2023-03-11T07:48:54;2.90;99.90
38604;DHT22;24924;50.054;8.790;2023-03-11T07:51:26;3.10;99.90
38604;DHT22;24924;50.054;8.790;2023-03-11T07:53:53;3.30;99.90
38604;DHT22;24924;50.054;8.790;2023-03-11T07:56:21;3.70;99.90
38604;DHT22;24924;50.054;8.790;2023-03-11T07:58:49;3.90;99.90
38604;DHT22;24924;50.054;8.790;2023-03-11T08:01:17;4.10;99.90
38604;DHT22;24924;50.054;8.790;2023-03-11T08:03:45;4.10;99.90
38604;DHT22;24924;50.054;8.790;2023-03-11T08:06:13;4.20;99.90
38604;DHT22;24924;50.054;8.790;2023-03-11T08:08:39;4.40;99.90
38604;DHT22;24924;50.054;8.790;2023-03-11T08:11:06;4.50;99.90
38604;DHT22;24924;50.054;8.790;2023-03-11T08:13:32;4.60;99.90
38604;DHT22;24924;50.054;8.790;2023-03-11T08:15:57;4.50;99.90
38604;DHT22;24924;50.054;8.790;2023-03-11T08:18:23;4.60;99.90
38604;DHT22;24924;50.054;8.790;2023-03-11T08:20:49;4.60;99.90
38604;DHT22;24924;50.054;8.790;2023-03-11T08:23:15;4.70;99.90
38604;DHT22;24924;50.054;8.790;2023-03-11T08:25:41;5.20;99.90
38604;DHT22;24924;50.054;8.790;2023-03-11T08:28:07;5.80;99.90
38604;DHT22;24924;50.054;8.790;2023-03-11T08:30:34;6.30;99.90
38604;DHT22;24924;50.054;8.790;2023-03-11T08:35:26;7.30;99.90
38604;DHT22;24924;50.054;8.790;2023-03-11T08:37:52;8.40;99.90
38604;DHT22;24924;50.054;8.790;2023-03-11T08:40:18;7.90;99.90
38604;DHT22;24924;50.054;8.790;2023-03-11T08:42:43;7.40;99.90
38604;DHT22;24924;50.054;8.790;2023-03-11T08:45:10;6.70;99.90
38604;DHT22;24924;50.054;8.790;2023-03-11T08:47:37;6.10;99.90
38604;DHT22;24924;50.054;8.790;2023-03-11T08:50:14;5.70;99.90
38604;DHT22;24924;50.054;8.790;2023-03-11T08:52:40;5.10;99.90
38604;DHT22;24924;50.054;8.790;2023-03-11T08:55:07;4.90;99.90
38604;DHT22;24924;50.054;8.790;2023-03-11T08:57:36;4.80;99.90
38604;DHT22;24924;50.054;8.790;2023-03-11T09:00:04;4.90;99.90
38604;DHT22;24924;50.054;8.790;2023-03-11T09:02:31;5.00;99.90
38604;DHT22;24924;50.054;8.790;2023-03-11T09:09:50;5.10;99.90
38604;DHT22;24924;50.054;8.790;2023-03-11T09:12:15;5.30;99.90
38604;DHT22;24924;50.054;8.790;2023-03-11T09:14:42;5.40;99.90
38604;DHT22;24924;50.054;8.790;2023-03-11T09:17:09;6.30;99.90
38604;DHT22;24924;50.054;8.790;2023-03-11T09:19:37;6.80;99.90
38604;DHT22;24924;50.054;8.790;2023-03-11T09:22:04;6.90;99.90
38604;DHT22;24924;50.054;8.790;2023-03-11T09:24:33;6.40;99.90
38604;DHT22;24924;50.054;8.790;2023-03-11T09:27:00;6.20;99.90
38604;DHT22;24924;50.054;8.790;2023-03-11T09:31:52;5.70;99.90
38604;DHT22;24924;50.054;8.790;2023-03-11T09:34:18;5.60;99.90
38604;DHT22;24924;50.054;8.790;2023-03-11T09:36:45;5.60;99.90
38604;DHT22;24924;50.054;8.790;2023-03-11T09:39:11;5.70;99.90
38604;DHT22;24924;50.054;8.790;2023-03-11T09:41:50;5.40;99.90
38604;DHT22;24924;50.054;8.790;2023-03-11T09:44:55;5.20;99.90
38604;DHT22;24924;50.054;8.790;2023-03-11T09:50:37;4.90;99.90
38604;DHT22;24924;50.054;8.790;2023-03-11T09:53:09;5.00;99.90
38604;DHT22;24924;50.054;8.790;2023-03-11T09:55:43;5.20;99.90
38604;DHT22;24924;50.054;8.790;2023-03-11T10:01:05;5.30;99.90
38604;DHT22;24924;50.054;8.790;2023-03-11T10:03:35;5.10;99.90
38604;DHT22;24924;50.054;8.790;2023-03-11T10:06:22;5.20;99.90
38604;DHT22;24924;50.054;8.790;2023-03-11T10:09:06;5.20;99.90
38604;DHT22;24924;50.054;8.790;2023-03-11T10:11:54;5.50;99.90
38604;DHT22;24924;50.054;8.790;2023-03-11T10:20:13;5.70;99.90
38604;DHT22;24924;50.054;8.790;2023-03-11T10:22:50;5.50;99.90
38604;DHT22;24924;50.054;8.790;2023-03-11T10:28:39;5.40;99.90
38604;DHT22;24924;50.054;8.790;2023-03-11T10:31:26;5.60;99.90
38604;DHT22;24924;50.054;8.790;2023-03-11T10:33:54;5.80;99.90
38604;DHT22;24924;50.054;8.790;2023-03-11T10:36:23;5.70;99.90
38604;DHT22;24924;50.054;8.790;2023-03-11T10:38:53;5.80;99.90
38604;DHT22;24924;50.054;8.790;2023-03-11T10:41:28;5.70;99.90
38604;DHT22;24924;50.054;8.790;2023-03-11T10:44:05;5.80;99.90
38604;DHT22;24924;50.054;8.790;2023-03-11T10:49:01;5.80;99.90
38604;DHT22;24924;50.054;8.790;2023-03-11T10:51:34;6.00;99.90
38604;DHT22;24924;50.054;8.790;2023-03-11T10:54:01;5.90;99.90
38604;DHT22;24924;50.054;8.790;2023-03-11T10:56:39;5.80;99.90
38604;DHT22;24924;50.054;8.790;2023-03-11T10:59:25;5.90;99.90
38604;DHT22;24924;50.054;8.790;2023-03-11T11:02:00;6.10;99.90
38604;DHT22;24924;50.054;8.790;2023-03-11T11:04:35;6.10;99.90
38604;DHT22;24924;50.054;8.790;2023-03-11T11:07:20;6.20;99.40
38604;DHT22;24924;50.054;8.790;2023-03-11T11:09:47;5.90;99.90
38604;DHT22;24924;50.054;8.790;2023-03-11T11:12:14;5.90;99.90
38604;DHT22;24924;50.054;8.790;2023-03-11T11:14:50;5.90;99.90
38604;DHT22;24924;50.054;8.790;2023-03-11T11:17:29;5.80;99.90
38604;DHT22;24924;50.054;8.790;2023-03-11T11:19:56;5.90;99.90
38604;DHT22;24924;50.054;8.790;2023-03-11T11:22:24;5.90;99.90
38604;DHT22;24924;50.054;8.790;2023-03-11T11:24:53;6.00;99.90
38604;DHT22;24924;50.054;8.790;2023-03-11T11:27:24;6.00;99.90
38604;DHT22;24924;50.054;8.790;2023-03-11T11:30:16;6.00;99.90
38604;DHT22;24924;50.054;8.790;2023-03-11T11:35:16;5.60;99.90
38604;DHT22;24924;50.054;8.790;2023-03-11T11:38:02;5.70;99.90
38604;DHT22;24924;50.054;8.790;2023-03-11T11:40:30;5.80;99.90
38604;DHT22;24924;50.054;8.790;2023-03-11T11:43:04;5.80;99.90
38604;DHT22;24924;50.054;8.790;2023-03-11T11:45:42;5.70;99.90
38604;DHT22;24924;50.054;8.790;2023-03-11T11:48:28;5.80;99.30
38604;DHT22;24924;50.054;8.790;2023-03-11T11:50:59;5.70;99.20
38604;DHT22;24924;50.054;8.790;2023-03-11T11:53:45;5.70;99.90
38604;DHT22;24924;50.054;8.790;2023-03-11T11:56:14;5.70;98.00
38604;DHT22;24924;50.054;8.790;2023-03-11T11:58:39;5.60;99.00
38604;DHT22;24924;50.054;8.790;2023-03-11T12:01:13;5.60;99.90
38604;DHT22;24924;50.054;8.790;2023-03-11T12:09:16;6.10;98.70
38604;DHT22;24924;50.054;8.790;2023-03-11T12:11:51;6.10;98.40
38604;DHT22;24924;50.054;8.790;2023-03-11T12:14:44;6.00;98.20
38604;DHT22;24924;50.054;8.790;2023-03-11T12:17:15;5.90;98.30
38604;DHT22;24924;50.054;8.790;2023-03-11T12:19:51;5.90;99.90
38604;DHT22;24924;50.054;8.790;2023-03-11T12:22:32;6.20;99.90
38604;DHT22;24924;50.054;8.790;2023-03-11T12:25:24;6.20;99.90
38604;DHT22;24924;50.054;8.790;2023-03-11T12:27:58;6.20;99.90
38604;DHT22;24924;50.054;8.790;2023-03-11T12:30:32;6.50;99.90
38604;DHT22;24924;50.054;8.790;2023-03-11T12:33:08;6.40;98.70
38604;DHT22;24924;50.054;8.790;2023-03-11T12:35:36;6.30;98.90
38604;DHT22;24924;50.054;8.790;2023-03-11T12:40:48;6.00;98.60
38604;DHT22;24924;50.054;8.790;2023-03-11T12:46:13;5.60;97.80
38604;DHT22;24924;50.054;8.790;2023-03-11T12:48:47;5.40;98.30
38604;DHT22;24924;50.054;8.790;2023-03-11T12:54:33;5.70;99.90
38604;DHT22;24924;50.054;8.790;2023-03-11T12:57:11;5.60;99.90
38604;DHT22;24924;50.054;8.790;2023-03-11T13:08:49;5.90;99.90
38604;DHT22;24924;50.054;8.790;2023-03-11T13:11:36;5.70;99.90
38604;DHT22;24924;50.054;8.790;2023-03-11T13:14:25;5.60;99.90
38604;DHT22;24924;50.054;8.790;2023-03-11T13:16:53;5.50;99.80
38604;DHT22;24924;50.054;8.790;2023-03-11T13:21:55;5.50;99.70
38604;DHT22;24924;50.054;8.790;2023-03-11T13:36:03;5.50;99.90
38604;DHT22;24924;50.054;8.790;2023-03-11T13:38:40;5.50;99.90
38604;DHT22;24924;50.054;8.790;2023-03-11T13:41:31;5.40;99.90
38604;DHT22;24924;50.054;8.790;2023-03-11T13:46:51;5.70;99.90
38604;DHT22;24924;50.054;8.790;2023-03-11T13:49:29;5.60;99.90
38604;DHT22;24924;50.054;8.790;2023-03-11T13:51:57;5.70;99.70
38604;DHT22;24924;50.054;8.790;2023-03-11T13:57:02;5.50;99.80
38604;DHT22;24924;50.054;8.790;2023-03-11T13:59:30;5.50;99.90
38604;DHT22;24924;50.054;8.790;2023-03-11T14:02:16;5.60;98.90
38604;DHT22;24924;50.054;8.790;2023-03-11T14:05:03;5.70;98.90
38604;DHT22;24924;50.054;8.790;2023-03-11T14:07:32;5.70;99.90
38604;DHT22;24924;50.054;8.790;2023-03-11T14:15:24;5.70;98.70
38604;DHT22;24924;50.054;8.790;2023-03-11T14:17:52;5.60;98.90
38604;DHT22;24924;50.054;8.790;2023-03-11T14:20:20;5.50;98.70
38604;DHT22;24924;50.054;8.790;2023-03-11T14:22:50;5.60;98.60
38604;DHT22;24924;50.054;8.790;2023-03-11T14:25:27;5.60;99.90
38604;DHT22;24924;50.054;8.790;2023-03-11T14:28:01;5.60;99.90
38604;DHT22;24924;50.054;8.790;2023-03-11T14:30:30;5.60;99.90
38604;DHT22;24924;50.054;8.790;2023-03-11T14:33:19;5.60;98.40
38604;DHT22;24924;50.054;8.790;2023-03-11T14:35:58;5.70;99.30
38604;DHT22;24924;50.054;8.790;2023-03-11T14:38:29;5.60;99.10
38604;DHT22;24924;50.054;8.790;2023-03-11T14:41:05;5.60;98.40
38604;DHT22;24924;50.054;8.790;2023-03-11T14:43:37;5.50;98.00
38604;DHT22;24924;50.054;8.790;2023-03-11T14:46:05;5.40;98.30
38604;DHT22;24924;50.054;8.790;2023-03-11T14:48:36;5.40;98.20
38604;DHT22;24924;50.054;8.790;2023-03-11T14:51:06;5.20;98.30
38604;DHT22;24924;50.054;8.790;2023-03-11T14:53:41;5.20;98.10
38604;DHT22;24924;50.054;8.790;2023-03-11T14:56:14;5.40;98.20
38604;DHT22;24924;50.054;8.790;2023-03-11T14:58:45;5.50;97.80
38604;DHT22;24924;50.054;8.790;2023-03-11T15:01:24;5.60;97.70
38604;DHT22;24924;50.054;8.790;2023-03-11T15:06:42;6.00;98.30
38604;DHT22;24924;50.054;8.790;2023-03-11T15:09:17;6.30;97.60
38604;DHT22;24924;50.054;8.790;2023-03-11T15:12:00;6.30;97.30
38604;DHT22;24924;50.054;8.790;2023-03-11T15:14:32;6.30;97.00
38604;DHT22;24924;50.054;8.790;2023-03-11T15:17:17;6.30;96.50
38604;DHT22;24924;50.054;8.790;2023-03-11T15:19:44;6.70;96.70
38604;DHT22;24924;50.054;8.790;2023-03-11T15:22:27;6.60;96.80
38604;DHT22;24924;50.054;8.790;2023-03-11T15:24:56;6.80;96.60
38604;DHT22;24924;50.054;8.790;2023-03-11T15:27:32;6.90;96.70
38604;DHT22;24924;50.054;8.790;2023-03-11T15:30:00;6.80;95.80
38604;DHT22;24924;50.054;8.790;2023-03-11T15:35:02;6.90;95.00
38604;DHT22;24924;50.054;8.790;2023-03-11T15:37:29;6.60;95.30
38604;DHT22;24924;50.054;8.790;2023-03-11T15:39:56;6.60;96.00
38604;DHT22;24924;50.054;8.790;2023-03-11T15:42:25;6.40;95.70
38604;DHT22;24924;50.054;8.790;2023-03-11T15:47:21;6.80;95.60
38604;DHT22;24924;50.054;8.790;2023-03-11T15:49:48;7.10;95.20
38604;DHT22;24924;50.054;8.790;2023-03-11T15:52:14;7.30;93.90
38604;DHT22;24924;50.054;8.790;2023-03-11T15:54:40;6.80;94.30
38604;DHT22;24924;50.054;8.790;2023-03-11T15:57:21;6.40;95.60
38604;DHT22;24924;50.054;8.790;2023-03-11T15:59:49;6.70;96.50
38604;DHT22;24924;50.054;8.790;2023-03-11T16:02:24;6.90;94.20
38604;DHT22;24924;50.054;8.790;2023-03-11T16:04:50;6.90;93.70
38604;DHT22;24924;50.054;8.790;2023-03-11T16:07:16;7.10;94.50
38604;DHT22;24924;50.054;8.790;2023-03-11T16:09:42;7.40;94.20
38604;DHT22;24924;50.054;8.790;2023-03-11T16:12:14;8.00;93.80
38604;DHT22;24924;50.054;8.790;2023-03-11T16:14:41;8.50;93.80
38604;DHT22;24924;50.054;8.790;2023-03-11T16:17:06;8.30;92.40
38604;DHT22;24924;50.054;8.790;2023-03-11T16:19:32;8.10;93.50
38604;DHT22;24924;50.054;8.790;2023-03-11T16:21:58;8.10;93.80
38604;DHT22;24924;50.054;8.790;2023-03-11T16:24:24;8.20;93.30
38604;DHT22;24924;50.054;8.790;2023-03-11T16:26:51;7.80;94.00
38604;DHT22;24924;50.054;8.790;2023-03-11T16:29:18;7.80;93.20
38604;DHT22;24924;50.054;8.790;2023-03-11T16:31:44;7.90;92.90
38604;DHT22;24924;50.054;8.790;2023-03-11T16:36:36;8.00;92.60
38604;DHT22;24924;50.054;8.790;2023-03-11T16:43:55;7.10;93.20
38604;DHT22;24924;50.054;8.790;2023-03-11T16:53:39;5.70;95.30
38604;DHT22;24924;50.054;8.790;2023-03-11T17:00:57;5.40;96.20
38604;DHT22;24924;50.054;8.790;2023-03-11T17:03:23;5.30;96.60
38604;DHT22;24924;50.054;8.790;2023-03-11T17:10:44;4.80;99.90
38604;DHT22;24924;50.054;8.790;2023-03-11T17:13:11;4.50;99.90
38604;DHT22;24924;50.054;8.790;2023-03-11T17:18:06;4.10;99.90
38604;DHT22;24924;50.054;8.790;2023-03-11T17:22:59;4.00;99.90
38604;DHT22;24924;50.054;8.790;2023-03-11T17:25:25;3.80;99.90
38604;DHT22;24924;50.054;8.790;2023-03-11T17:27:51;3.70;99.90
38604;DHT22;24924;50.054;8.790;2023-03-11T17:30:17;3.60;99.90
38604;DHT22;24924;50.054;8.790;2023-03-11T17:32:44;3.50;99.90
38604;DHT22;24924;50.054;8.790;2023-03-11T17:37:36;3.30;99.90
38604;DHT22;24924;50.054;8.790;2023-03-11T17:42:28;3.20;99.90
38604;DHT22;24924;50.054;8.790;2023-03-11T17:44:55;3.20;99.90
38604;DHT22;24924;50.054;8.790;2023-03-11T17:47:22;3.10;99.90
38604;DHT22;24924;50.054;8.790;2023-03-11T17:49:50;3.10;99.90
38604;DHT22;24924;50.054;8.790;2023-03-11T17:52:17;3.10;99.90
38604;DHT22;24924;50.054;8.790;2023-03-11T17:54:44;3.10;99.90
38604;DHT22;24924;50.054;8.790;2023-03-11T17:59:35;2.80;99.90
38604;DHT22;24924;50.054;8.790;2023-03-11T18:02:01;2.70;99.90
38604;DHT22;24924;50.054;8.790;2023-03-11T18:06:54;2.60;99.90
38604;DHT22;24924;50.054;8.790;2023-03-11T18:09:20;2.60;99.90
38604;DHT22;24924;50.054;8.790;2023-03-11T18:11:46;2.50;99.90
38604;DHT22;24924;50.054;8.790;2023-03-11T18:14:11;2.40;99.90
38604;DHT22;24924;50.054;8.790;2023-03-11T18:16:38;2.30;99.90
38604;DHT22;24924;50.054;8.790;2023-03-11T18:21:30;2.10;99.90
38604;DHT22;24924;50.054;8.790;2023-03-11T18:23:58;1.90;99.90
38604;DHT22;24924;50.054;8.790;2023-03-11T18:26:26;2.00;99.90
38604;DHT22;24924;50.054;8.790;2023-03-11T18:28:57;1.80;99.90
38604;DHT22;24924;50.054;8.790;2023-03-11T18:31:24;1.70;99.90
38604;DHT22;24924;50.054;8.790;2023-03-11T18:33:53;1.60;99.90
38604;DHT22;24924;50.054;8.790;2023-03-11T18:36:27;1.50;99.90
38604;DHT22;24924;50.054;8.790;2023-03-11T18:38:55;1.40;99.90
38604;DHT22;24924;50.054;8.790;2023-03-11T18:41:22;1.30;99.90
38604;DHT22;24924;50.054;8.790;2023-03-11T18:43:52;1.30;99.90
38604;DHT22;24924;50.054;8.790;2023-03-11T18:46:19;1.30;99.90
38604;DHT22;24924;50.054;8.790;2023-03-11T18:48:45;1.40;99.90
38604;DHT22;24924;50.054;8.790;2023-03-11T18:51:11;1.40;99.90
38604;DHT22;24924;50.054;8.790;2023-03-11T18:53:37;1.30;99.90
38604;DHT22;24924;50.054;8.790;2023-03-11T18:56:09;1.30;99.90
38604;DHT22;24924;50.054;8.790;2023-03-11T19:01:14;1.30;99.90
38604;DHT22;24924;50.054;8.790;2023-03-11T19:03:41;1.30;99.90
38604;DHT22;24924;50.054;8.790;2023-03-11T19:06:09;1.10;99.90
38604;DHT22;24924;50.054;8.790;2023-03-11T19:11:13;0.90;99.90
38604;DHT22;24924;50.054;8.790;2023-03-11T19:16:06;0.50;99.90
38604;DHT22;24924;50.054;8.790;2023-03-11T19:21:00;0.80;99.90
38604;DHT22;24924;50.054;8.790;2023-03-11T19:23:27;0.80;99.90
38604;DHT22;24924;50.054;8.790;2023-03-11T19:25:52;0.80;99.90
38604;DHT22;24924;50.054;8.790;2023-03-11T19:28:19;0.80;99.90
38604;DHT22;24924;50.054;8.790;2023-03-11T19:30:52;0.80;99.90
38604;DHT22;24924;50.054;8.790;2023-03-11T19:33:19;0.70;99.90
38604;DHT22;24924;50.054;8.790;2023-03-11T19:35:51;0.70;99.90
38604;DHT22;24924;50.054;8.790;2023-03-11T19:38:18;0.60;99.90
38604;DHT22;24924;50.054;8.790;2023-03-11T19:40:44;0.40;99.90
38604;DHT22;24924;50.054;8.790;2023-03-11T19:48:04;0.30;99.90
38604;DHT22;24924;50.054;8.790;2023-03-11T19:55:23;0.20;99.90
38604;DHT22;24924;50.054;8.790;2023-03-11T20:00:15;0.00;99.90
38604;DHT22;24924;50.054;8.790;2023-03-11T20:05:08;0.10;99.90
38604;DHT22;24924;50.054;8.790;2023-03-11T20:12:28;0.20;99.90
38604;DHT22;24924;50.054;8.790;2023-03-11T20:17:20;0.00;99.90
38604;DHT22;24924;50.054;8.790;2023-03-11T20:19:46;0.00;99.90
38604;DHT22;24924;50.054;8.790;2023-03-11T20:22:12;0.00;99.90
38604;DHT22;24924;50.054;8.790;2023-03-11T20:29:30;-0.10;99.90
38604;DHT22;24924;50.054;8.790;2023-03-11T20:34:22;-0.20;99.90
38604;DHT22;24924;50.054;8.790;2023-03-11T20:44:10;-0.30;99.90
38604;DHT22;24924;50.054;8.790;2023-03-11T20:46:36;-0.20;99.90
38604;DHT22;24924;50.054;8.790;2023-03-11T20:56:23;-0.10;99.90
38604;DHT22;24924;50.054;8.790;2023-03-11T20:58:50;-0.10;99.90
38604;DHT22;24924;50.054;8.790;2023-03-11T21:01:22;-0.20;99.90